SKUC/AUC METAR and TAF weather

Enter ICAO airport designator
Station Type Date Time Source
SKUC METAR 2020/01/20 02:00 UTC NOAA

SKUC 200200Z 32005KT 9999 SCT020 26/22 A2988


Station Type Date Time Source
SKUC Decoded METAR 2020/01/20 02:00 UTC NOAA

Arauca / Santiago Perez, Colombia (SKUC) 07-04N 070-44W 128M
Jan 19, 2020 - 09:00 PM EST / 2020.01.20 0200 UTC
Wind: from the NW (320 degrees) at 6 MPH (5 KT):0
Visibility: greater than 7 mile(s):0
Sky conditions: partly cloudy
Temperature: 78 F (26 C)
Dew Point: 71 F (22 C)
Relative Humidity: 78%
Pressure (altimeter): 29.88 in. Hg (1011 hPa)
ob: SKUC 200200Z 32005KT 9999 SCT020 26/22 A2988
cycle: 2

Station Type Date Time Source
SKUC TAF UTC NOAA

Error!

Example: see airport list